Dries De Ketelaere

Scout - Sint-Truiden
11 Mär 2027
Donnerstag
Verarbeitung

Persönlichkeit

Anpassungsfähigkeit (13) Ehrgeiz (15) Kontroverse (1) Loyalität (20) Druck (1) Professionalität (6) Fairness (4) Temperament (4)

Profil

Trainerstil Demokratisch
Lizenz Kontinentale C
Entschlossenheit 6
Menschenführung 6
Motivation 12
Disziplin 9
Arbeitszufriedenheit
50%
Ermüdung
0%
Rolle Scout
Gehalt 58.7K p/W
Vertrag 14.03.2027

Leistung

Verhalten Normal
Trainingseffektivität
21%
Spielerentwicklung
50%
Verletzungsprävention
20%
Taktische Umsetzung
35%

Letzte Ereignisse

Vertragsverhandlung begonnen jetzt
Nahm an einer Scouting-Besprechung teil jetzt
Nahm an einer Scouting-Besprechung teil jetzt
Nahm an einer Scouting-Besprechung teil jetzt
Nahm an einer Scouting-Besprechung teil jetzt
Vertragsverhandlung begonnen 7T her
Vertragsverhandlung begonnen 7T her
Vertragsverhandlung begonnen 7T her

Aktuell beobachtet

55
Spieler Verein Status Fähigkeit Vertrauen Beobachtet Zuletzt beobachtet Letzte Stimme
Senny Mayulu Paris Saint-Germain Aktiv 139 / 145 40% 4 31.12.2026 -
Sam Bell Bristol City Aktiv 116 / 128 40% 1 29.12.2026 -
Ihor Krasnopir Polissia Aktiv 115 / 122 40% 1 29.12.2026 -
Luis Vázquez Birmingham Aktiv 142 / 131 40% 3 27.12.2026 -
Marezi Portsmouth Aktiv 132 / 128 40% 1 26.12.2026 -
Martin Sekulić Ural Verloren 127 / 103 40% 1 25.12.2026 -
Álvaro Rodríguez Bournemouth Aktiv 134 / 136 40% 1 25.12.2026 -
Leandro Godoy CSKA Sofia Aktiv 135 / 106 40% 1 22.12.2026 -
Rafiu Durosinmi Racing Genk Aktiv 125 / 129 40% 2 21.12.2026 -
Ruben van Bommel Ferencvaros Aktiv 117 / 140 40% 2 21.12.2026 -
Mees Rijks Bristol Rovers Aktiv 122 / 111 40% 1 19.12.2026 -
Amine Karraoui Feniks Aktiv 87 / 90 40% 2 17.12.2026 -
Yaroslav Gladyshev Dinamo Moscow Aktiv 106 / 129 40% 1 17.12.2026 -
Giacomo Raspadori Atalanta Aktiv 149 / 144 40% 1 16.12.2026 Mehr Infos nötig
Jakob Napoleon Romsaas Charleroi Aktiv 106 / 124 40% 1 12.12.2026 -
Anthony Okachi Great Olympics Aktiv 82 / 93 40% 1 10.12.2026 -
George Hirst Stoke City Aktiv 124 / 141 40% 1 09.12.2026 -
Razvan Balasa Crvena Zvezda Aktiv 136 / 159 40% 1 09.12.2026 -
Richard Noël AS Nancy Aktiv 94 / 108 40% 1 08.12.2026 -
David Kalokoh Ajax Aktiv 119 / 110 40% 1 07.12.2026 -
Evanilson Bournemouth Aktiv 141 / 145 40% 2 06.12.2026 -
Tommy Conway Middlesbrough Aktiv 120 / 121 40% 1 05.12.2026 -
Etiosa Ighodaro Kaizer Chiefs Aktiv 103 / 108 40% 1 03.12.2026 -
Dom Ballard Leyton Orient Aktiv 126 / 116 40% 1 01.12.2026 -
Will Lankshear Middlesbrough Aktiv 120 / 125 40% 1 30.11.2026 -
Georginio Rutter Brighton Aktiv 156 / 148 40% 2 28.11.2026 -
Bénie Traoré New York City Aktiv 113 / 139 40% 1 28.11.2026 -
Tom Cannon Sheffield United Aktiv 135 / 130 40% 2 25.11.2026 -
Yousef Salech Cardiff City Aktiv 136 / 118 40% 1 22.11.2026 -
Nicolás Cordero Aldosivi Aktiv 106 / 110 40% 1 22.11.2026 -
Agustín Módica Gimnasia y Esgrima Aktiv 118 / 115 40% 1 21.11.2026 -
Myron van Brederode KV Mechelen Aktiv 117 / 126 40% 1 21.11.2026 -
El Hadji Malick Diouf Brentford Aktiv 151 / 133 40% 1 19.11.2026 -
César Obongo Dijon Aktiv 75 / 82 40% 1 19.11.2026 Mehr Infos nötig
Rilind Nivokazi Sion Aktiv 127 / 121 40% 1 15.11.2026 -
Diego García Malmo FF Aktiv 114 / 129 40% 1 10.11.2026 -
Adnan Courtois KV Oostende Aktiv 146 / 142 40% 1 10.11.2026 -
Isa Sakamoto Westerlo Aktiv 99 / 124 40% 1 04.11.2026 -
Ammar Ramadan DAC Dunajska Streda Aktiv 138 / 113 40% 1 02.11.2026 -
Daan Heymans Racing Genk Aktiv 127 / 123 40% 2 21.10.2026 -
Thibaud Verlinden OH Leuven Aktiv 116 / 117 40% 1 16.10.2026 -
Jackson Muleka Konyaspor Aktiv 129 / 111 40% 1 16.10.2026 -
Mandla Erasmus SuperSport United Aktiv 131 / 135 40% 1 15.10.2026 -
Mathias Delorge KAA Gent Aktiv 117 / 114 40% 1 11.10.2026 Mehr Infos nötig
Telasco Segovia Inter Miami CF Aktiv 114 / 117 40% 1 11.10.2026 -
Bamba Dieng Crvena Zvezda Aktiv 123 / 123 40% 1 10.10.2026 -
Tiago Araújo KAA Gent Aktiv 119 / 109 40% 1 08.10.2026 -
Ramiro Ruiz Rodríguez Atlético Tucumán Aktiv 130 / 117 40% 1 08.10.2026 -
Aimé Omgba KAA Gent Aktiv 122 / 119 40% 2 06.10.2026 -
Samuel Lucero Defensa y Justicia Aktiv 124 / 109 40% 1 06.10.2026 -
Per Kloosterboer Utrecht Aktiv 105 / 94 40% 1 06.10.2026 -
Toni Fruk KV Mechelen Aktiv 130 / 135 40% 1 06.10.2026 -
Abdelkahar Kadri KAA Gent Aktiv 113 / 127 40% 1 09.09.2026 -
Paxten Aaronson Colorado Rapids Aktiv 112 / 120 40% 1 07.09.2026 -
Cole Bassett Portland Timbers Aktiv 138 / 106 40% 1 07.09.2026 -